createdAt,value
2019-06-07T00:01:23.071Z,13.14
2019-06-07T00:04:27.379Z,13.15
2019-06-07T00:07:31.691Z,13.18
2019-06-07T00:10:37.105Z,13.38
2019-06-07T00:13:41.676Z,13.24
2019-06-07T00:16:45.986Z,13.26
2019-06-07T00:19:50.556Z,13.23
2019-06-07T00:22:55.030Z,13.20
2019-06-07T00:25:59.331Z,13.12
2019-06-07T00:29:03.722Z,13.12
2019-06-07T00:32:09.268Z,13.11
2019-06-07T00:35:15.483Z,13.11
2019-06-07T00:38:21.895Z,13.11
2019-06-07T00:41:26.061Z,13.12
2019-06-07T00:44:30.380Z,13.10
2019-06-07T00:47:34.719Z,13.16
2019-06-07T00:50:39.024Z,13.04
2019-06-07T00:53:43.316Z,13.03
2019-06-07T00:56:47.636Z,13.01
2019-06-07T00:59:52.037Z,13.01
2019-06-07T01:02:56.349Z,12.97
2019-06-07T01:06:00.643Z,12.97
2019-06-07T01:09:07.560Z,12.88
2019-06-07T01:12:13.814Z,12.88
2019-06-07T01:15:28.545Z,12.87
2019-06-07T01:18:38.213Z,12.87
2019-06-07T01:21:36.333Z,12.90
2019-06-07T01:24:40.638Z,12.98
2019-06-07T01:27:44.975Z,13.16
2019-06-07T01:30:49.224Z,13.27
2019-06-07T01:33:53.542Z,13.28
2019-06-07T01:36:57.832Z,13.28
2019-06-07T01:40:02.212Z,13.25
2019-06-07T01:43:06.506Z,13.25
2019-06-07T01:46:11.900Z,13.30
2019-06-07T01:49:17.112Z,13.37
2019-06-07T01:52:24.841Z,13.35
2019-06-07T01:55:32.622Z,13.35
2019-06-07T01:58:35.009Z,13.38
2019-06-07T02:01:39.392Z,13.44
2019-06-07T02:04:43.716Z,13.43
2019-06-07T02:07:51.610Z,13.40
2019-06-07T02:10:55.928Z,13.42
2019-06-07T02:14:00.238Z,13.42
2019-06-07T02:17:04.655Z,13.39
2019-06-07T02:20:09.639Z,13.39
2019-06-07T02:23:13.983Z,13.42
2019-06-07T02:26:20.438Z,13.48
2019-06-07T02:29:25.449Z,13.53
2019-06-07T02:32:34.670Z,13.48
2019-06-07T02:35:40.326Z,13.45
2019-06-07T02:38:43.080Z,13.46
2019-06-07T02:41:47.431Z,13.41
2019-06-07T02:44:52.917Z,13.49
2019-06-07T02:47:57.378Z,13.45
2019-06-07T02:51:01.674Z,13.41
2019-06-07T02:54:06.243Z,13.37
2019-06-07T02:57:10.553Z,13.38
2019-06-07T03:00:41.757Z,13.42
2019-06-07T03:03:22.727Z,13.42
2019-06-07T03:06:31.836Z,13.43
2019-06-07T03:09:37.218Z,13.42
2019-06-07T03:12:43.070Z,13.42
2019-06-07T03:15:50.163Z,13.41
2019-06-07T03:19:04.895Z,13.43
2019-06-07T03:22:09.184Z,13.42
2019-06-07T03:25:13.486Z,13.42
2019-06-07T03:28:17.797Z,13.45
2019-06-07T03:31:22.097Z,13.45
2019-06-07T03:34:28.885Z,13.41
2019-06-07T03:37:37.577Z,13.36
2019-06-07T03:40:40.199Z,13.36
2019-06-07T03:43:44.687Z,13.33
2019-06-07T03:46:49.116Z,13.33
2019-06-07T03:49:53.519Z,13.29
2019-06-07T03:52:57.826Z,13.28
2019-06-07T03:56:02.285Z,13.30
2019-06-07T03:59:06.650Z,13.32
2019-06-07T04:02:10.959Z,13.35
2019-06-07T04:05:15.356Z,13.43
2019-06-07T04:08:19.664Z,13.59
2019-06-07T04:11:25.092Z,13.62
2019-06-07T04:14:32.833Z,13.62
2019-06-07T04:17:45.388Z,13.73
2019-06-07T04:20:45.211Z,13.70
2019-06-07T04:23:49.522Z,13.86
2019-06-07T04:26:53.829Z,13.90
2019-06-07T04:30:07.195Z,13.79
2019-06-07T04:33:04.166Z,13.80
2019-06-07T04:36:10.181Z,13.80
2019-06-07T04:39:14.679Z,13.86
2019-06-07T04:42:21.217Z,13.87
2019-06-07T04:45:36.275Z,14.03
2019-06-07T04:48:35.998Z,14.03
2019-06-07T04:51:43.461Z,14.14
2019-06-07T04:54:47.798Z,14.24
2019-06-07T04:57:52.165Z,14.17
2019-06-07T05:01:03.038Z,14.17
2019-06-07T05:04:02.759Z,14.19
2019-06-07T05:07:08.956Z,14.19
2019-06-07T05:10:14.444Z,14.19
2019-06-07T05:13:18.865Z,14.31
2019-06-07T05:16:24.973Z,14.31
2019-06-07T05:19:30.588Z,14.44
2019-06-07T05:22:40.845Z,14.44
2019-06-07T05:25:44.738Z,14.58
2019-06-07T05:28:49.312Z,14.66
2019-06-07T05:31:54.119Z,14.62
2019-06-07T05:34:58.542Z,14.56
2019-06-07T05:38:03.059Z,14.56
2019-06-07T05:41:08.104Z,14.52
2019-06-07T05:44:14.998Z,14.47
2019-06-07T05:47:19.039Z,14.51
2019-06-07T05:50:38.920Z,14.52
2019-06-07T05:53:29.452Z,14.65
2019-06-07T05:56:35.715Z,14.65
2019-06-07T05:59:44.305Z,14.62
2019-06-07T06:03:04.347Z,14.86
2019-06-07T06:05:55.604Z,14.86
2019-06-07T06:09:13.493Z,14.96
2019-06-07T06:12:09.544Z,15.27
2019-06-07T06:15:14.272Z,15.27
2019-06-07T06:18:18.664Z,15.37
2019-06-07T06:21:23.052Z,15.39
2019-06-07T06:24:27.448Z,15.41
2019-06-07T06:30:38.237Z,15.59
2019-06-07T06:33:43.440Z,15.70
2019-06-07T06:36:50.353Z,15.71
2019-06-07T06:39:54.934Z,15.67
2019-06-07T06:42:59.517Z,15.78
2019-06-07T06:46:04.069Z,15.82
2019-06-07T06:49:08.518Z,15.86
2019-06-07T06:52:12.906Z,15.78
2019-06-07T06:55:18.574Z,15.87
2019-06-07T06:58:22.870Z,16.05
2019-06-07T07:01:27.214Z,16.10
2019-06-07T07:04:32.144Z,16.08
2019-06-07T07:07:37.028Z,15.99
2019-06-07T07:10:43.341Z,16.14
2019-06-07T07:13:49.876Z,16.28
2019-06-07T07:16:56.507Z,16.44
2019-06-07T07:20:01.215Z,16.59
2019-06-07T07:23:05.830Z,16.65
2019-06-07T07:26:10.231Z,16.75
2019-06-07T07:29:14.592Z,16.80
2019-06-07T07:32:18.921Z,16.88
2019-06-07T07:35:23.776Z,17.11
2019-06-07T07:38:28.344Z,17.06
2019-06-07T07:41:32.731Z,16.97
2019-06-07T07:44:37.096Z,17.12
2019-06-07T07:47:58.335Z,17.12
2019-06-07T07:50:49.807Z,17.19
2019-06-07T07:54:09.382Z,17.43
2019-06-07T07:57:01.169Z,17.27
2019-06-07T08:00:48.854Z,17.18
2019-06-07T08:03:12.633Z,17.23
2019-06-07T08:06:17.195Z,17.34
2019-06-07T08:09:21.604Z,17.25
2019-06-07T08:12:26.272Z,17.41
2019-06-07T08:15:30.712Z,17.46
2019-06-07T08:18:35.176Z,17.48
2019-06-07T08:21:39.574Z,17.54
2019-06-07T08:24:43.945Z,17.50
2019-06-07T08:27:49.509Z,17.51
2019-06-07T08:31:02.420Z,17.51
2019-06-07T08:34:00.790Z,17.35
2019-06-07T08:37:05.422Z,17.54
2019-06-07T08:40:12.407Z,17.50
2019-06-07T08:43:21.030Z,17.41
2019-06-07T08:46:24.410Z,17.56
2019-06-07T08:49:30.552Z,17.62
2019-06-07T08:52:34.867Z,17.84
2019-06-07T08:55:39.226Z,17.98
2019-06-07T08:58:43.544Z,18.02
2019-06-07T09:01:48.841Z,18.00
2019-06-07T09:04:56.420Z,18.14
2019-06-07T09:08:23.583Z,18.20
2019-06-07T09:11:10.893Z,18.21
2019-06-07T09:14:11.407Z,18.18
2019-06-07T09:17:15.720Z,18.24
2019-06-07T09:20:36.315Z,18.59
2019-06-07T09:23:28.132Z,18.72
2019-06-07T09:26:32.932Z,18.60
2019-06-07T09:29:38.575Z,18.76
2019-06-07T09:32:42.902Z,18.83
2019-06-07T09:35:48.634Z,18.93
2019-06-07T09:38:54.473Z,18.89
2019-06-07T09:42:01.596Z,18.52
2019-06-07T09:45:08.859Z,18.43
2019-06-07T09:48:16.126Z,18.62
2019-06-07T09:51:20.399Z,18.93
2019-06-07T09:55:03.044Z,19.08
2019-06-07T09:57:31.358Z,19.21
2019-06-07T10:00:42.115Z,19.03
2019-06-07T10:03:43.208Z,19.15
2019-06-07T10:06:47.513Z,19.25
2019-06-07T10:12:59.434Z,19.69
2019-06-07T10:16:04.778Z,19.56
2019-06-07T10:19:09.943Z,19.56
2019-06-07T10:22:14.398Z,19.75
2019-06-07T10:25:18.718Z,19.82
2019-06-07T10:28:23.307Z,19.73
2019-06-07T10:31:29.662Z,19.63
2019-06-07T10:34:34.055Z,19.59
2019-06-07T10:37:38.364Z,19.71
2019-06-07T10:40:42.834Z,19.73
2019-06-07T10:43:47.119Z,19.91
2019-06-07T10:46:51.441Z,19.74
2019-06-07T10:49:55.749Z,19.79
2019-06-07T10:53:00.045Z,19.76
2019-06-07T10:56:04.898Z,20.07
2019-06-07T10:59:09.822Z,20.09
2019-06-07T11:02:15.317Z,20.19
2019-06-07T11:05:19.805Z,20.04
2019-06-07T11:08:24.119Z,19.79
2019-06-07T11:11:28.570Z,19.98
2019-06-07T11:14:33.045Z,20.09
2019-06-07T11:17:37.347Z,20.19
2019-06-07T11:20:41.650Z,20.46
2019-06-07T11:23:45.940Z,20.41
2019-06-07T11:26:50.298Z,20.44
2019-06-07T11:29:54.841Z,20.59
2019-06-07T11:32:59.361Z,20.95
2019-06-07T11:36:08.649Z,20.78
2019-06-07T11:39:15.196Z,20.54
2019-06-07T11:42:20.201Z,20.01
2019-06-07T11:45:24.518Z,20.28
2019-06-07T11:48:29.937Z,20.15
2019-06-07T11:51:35.327Z,20.27
2019-06-07T11:54:39.908Z,20.13
2019-06-07T11:57:44.336Z,20.21
2019-06-07T12:00:48.696Z,20.14
2019-06-07T12:03:53.102Z,20.35
2019-06-07T12:06:57.453Z,20.28
2019-06-07T12:10:03.290Z,20.19
2019-06-07T12:13:08.357Z,19.97
2019-06-07T12:16:13.541Z,20.04
2019-06-07T12:19:19.885Z,20.12
2019-06-07T12:22:24.285Z,20.09
2019-06-07T12:25:28.899Z,20.03
2019-06-07T12:28:33.308Z,20.39
2019-06-07T12:31:37.629Z,20.42
2019-06-07T12:34:41.949Z,20.40
2019-06-07T12:37:46.303Z,20.12
2019-06-07T12:40:57.692Z,20.28
2019-06-07T12:43:59.144Z,20.60
2019-06-07T12:47:02.987Z,20.37
2019-06-07T12:50:08.160Z,20.18
2019-06-07T12:53:13.626Z,20.48
2019-06-07T12:56:17.990Z,20.41
2019-06-07T12:59:22.379Z,20.48
2019-06-07T13:02:26.683Z,20.26
2019-06-07T13:05:31.079Z,20.23
2019-06-07T13:08:35.475Z,20.27
2019-06-07T13:11:39.879Z,20.40
2019-06-07T13:14:44.394Z,20.53
2019-06-07T13:17:50.448Z,20.33
2019-06-07T13:20:55.667Z,20.53
2019-06-07T13:24:00.286Z,20.38
2019-06-07T13:27:06.083Z,20.60
2019-06-07T13:30:11.455Z,20.62
2019-06-07T13:33:19.069Z,20.76
2019-06-07T13:36:24.368Z,20.61
2019-06-07T13:39:29.833Z,20.66
2019-06-07T13:42:34.256Z,20.55
2019-06-07T13:45:38.626Z,20.28
2019-06-07T13:48:42.990Z,20.59
2019-06-07T13:51:49.092Z,20.55
2019-06-07T13:54:53.477Z,20.42
2019-06-07T13:57:57.775Z,20.67
2019-06-07T14:01:02.154Z,20.57
2019-06-07T14:04:06.447Z,20.64
2019-06-07T14:07:10.742Z,20.45
2019-06-07T14:10:15.697Z,20.85
2019-06-07T14:13:20.122Z,20.59
2019-06-07T14:16:26.304Z,20.37
2019-06-07T14:19:32.140Z,20.32
2019-06-07T14:22:36.567Z,20.67
2019-06-07T14:25:41.473Z,20.39
2019-06-07T14:28:45.763Z,20.39
2019-06-07T14:31:50.467Z,20.25
2019-06-07T14:34:56.220Z,20.29
2019-06-07T14:38:00.753Z,20.28
2019-06-07T14:41:05.094Z,19.97
2019-06-07T14:44:09.421Z,20.26
2019-06-07T14:47:13.751Z,20.38
2019-06-07T14:50:19.221Z,20.22
2019-06-07T14:53:24.513Z,20.00
2019-06-07T14:56:29.530Z,20.03
2019-06-07T14:59:34.917Z,20.21
2019-06-07T15:02:39.904Z,20.32
2019-06-07T15:05:44.485Z,20.28
2019-06-07T15:08:51.421Z,20.40
2019-06-07T15:11:54.886Z,20.42
2019-06-07T15:14:59.179Z,20.65
2019-06-07T15:18:03.568Z,20.97
2019-06-07T15:21:08.121Z,21.29
2019-06-07T15:24:12.419Z,21.45
2019-06-07T15:27:17.062Z,21.54
2019-06-07T15:30:21.861Z,22.38
2019-06-07T15:33:26.192Z,22.41
2019-06-07T15:36:30.474Z,22.12
2019-06-07T15:39:36.644Z,22.70
2019-06-07T15:42:52.055Z,22.85
2019-06-07T15:45:47.550Z,22.56
2019-06-07T15:48:51.875Z,22.79
2019-06-07T15:51:56.171Z,23.03
2019-06-07T15:55:00.480Z,23.16
2019-06-07T15:58:04.770Z,22.87
2019-06-07T16:01:09.071Z,22.99
2019-06-07T16:04:13.370Z,22.81
2019-06-07T16:07:17.661Z,22.77
2019-06-07T16:10:21.955Z,22.46
2019-06-07T16:13:26.384Z,22.40
2019-06-07T16:16:30.781Z,22.66
2019-06-07T16:19:39.250Z,22.53
2019-06-07T16:22:42.290Z,22.47
2019-06-07T16:25:47.722Z,22.39
2019-06-07T16:28:52.041Z,22.12
2019-06-07T16:31:56.396Z,21.84
2019-06-07T16:35:00.694Z,21.79
2019-06-07T16:38:05.319Z,21.63
2019-06-07T16:41:11.429Z,21.43
2019-06-07T16:44:15.834Z,21.18
2019-06-07T16:47:20.142Z,21.14
2019-06-07T16:50:24.975Z,20.98
2019-06-07T16:53:30.360Z,20.79
2019-06-07T16:56:34.656Z,20.89
2019-06-07T16:59:39.026Z,21.17
2019-06-07T17:02:45.026Z,21.01
2019-06-07T17:05:50.569Z,21.30
2019-06-07T17:08:54.949Z,21.42
2019-06-07T17:11:59.394Z,21.15
2019-06-07T17:15:04.037Z,21.21
2019-06-07T17:18:08.406Z,20.76
2019-06-07T17:21:12.740Z,20.05
2019-06-07T17:24:17.043Z,19.85
2019-06-07T17:27:21.365Z,19.16
2019-06-07T17:30:25.902Z,18.83
2019-06-07T17:33:30.192Z,18.85
2019-06-07T17:36:34.500Z,18.57
2019-06-07T17:39:38.799Z,18.56
2019-06-07T17:42:43.105Z,18.38
2019-06-07T17:45:47.598Z,18.13
2019-06-07T17:48:51.879Z,18.26
2019-06-07T17:51:57.391Z,18.23
2019-06-07T17:55:01.676Z,18.18
2019-06-07T17:58:06.020Z,17.97
2019-06-07T18:01:10.323Z,17.77
2019-06-07T18:04:14.618Z,17.81
2019-06-07T18:07:20.838Z,17.71
2019-06-07T18:10:38.299Z,17.66
2019-06-07T18:13:43.941Z,17.71
2019-06-07T18:16:48.462Z,17.62
2019-06-07T18:19:53.039Z,17.67
2019-06-07T18:22:57.431Z,17.44
2019-06-07T18:26:01.956Z,17.44
2019-06-07T18:29:06.365Z,17.37
2019-06-07T18:32:13.476Z,17.49
2019-06-07T18:35:17.908Z,17.34
2019-06-07T18:38:22.239Z,17.26
2019-06-07T18:41:28.337Z,17.08
2019-06-07T18:44:32.644Z,17.17
2019-06-07T18:47:36.950Z,16.97
2019-06-07T18:50:41.350Z,17.09
2019-06-07T18:53:45.645Z,17.07
2019-06-07T18:56:50.755Z,17.06
2019-06-07T18:59:56.462Z,17.08
2019-06-07T19:03:01.055Z,17.14
2019-06-07T19:06:06.941Z,17.30
2019-06-07T19:09:11.195Z,17.06
2019-06-07T19:12:15.507Z,17.13
2019-06-07T19:15:20.722Z,17.09
2019-06-07T19:18:25.149Z,17.09
2019-06-07T19:21:32.440Z,17.20
2019-06-07T19:24:38.458Z,17.16
2019-06-07T19:27:42.771Z,17.14
2019-06-07T19:30:47.160Z,17.06
2019-06-07T19:33:51.517Z,17.06
2019-06-07T19:36:55.807Z,16.90
2019-06-07T19:40:00.202Z,16.87
2019-06-07T19:43:05.537Z,16.96
2019-06-07T19:46:09.929Z,16.89
2019-06-07T19:49:14.346Z,16.94
2019-06-07T19:52:18.724Z,16.82
2019-06-07T19:55:23.044Z,16.85
2019-06-07T19:58:27.406Z,16.78
2019-06-07T20:01:31.665Z,17.06
2019-06-07T20:04:35.955Z,16.87
2019-06-07T20:07:40.500Z,16.89
2019-06-07T20:10:44.892Z,17.00
2019-06-07T20:13:50.279Z,16.99
2019-06-07T20:16:55.185Z,16.94
2019-06-07T20:20:00.528Z,17.01
2019-06-07T20:23:05.394Z,17.07
2019-06-07T20:26:10.937Z,17.02
2019-06-07T20:29:25.902Z,16.97
2019-06-07T20:32:21.684Z,17.01
2019-06-07T20:35:25.978Z,17.10
2019-06-07T20:38:31.392Z,17.02
2019-06-07T20:41:35.692Z,17.05
2019-06-07T20:44:40.025Z,16.97
2019-06-07T20:47:44.325Z,16.93
2019-06-07T20:50:49.065Z,16.95
2019-06-07T20:53:53.414Z,16.99
2019-06-07T20:56:58.816Z,17.14
2019-06-07T21:00:12.229Z,17.20
2019-06-07T21:03:09.701Z,17.28
2019-06-07T21:06:15.321Z,17.17
2019-06-07T21:09:19.647Z,17.18
2019-06-07T21:12:24.184Z,17.13
2019-06-07T21:15:28.659Z,17.21
2019-06-07T21:18:33.002Z,17.05
2019-06-07T21:21:39.125Z,17.10
2019-06-07T21:24:43.430Z,17.20
2019-06-07T21:27:47.718Z,17.12
2019-06-07T21:30:53.588Z,17.15
2019-06-07T21:33:57.907Z,16.94
2019-06-07T21:37:05.565Z,16.84
2019-06-07T21:40:10.550Z,16.92
2019-06-07T21:43:14.873Z,16.90
2019-06-07T21:46:20.643Z,16.78
2019-06-07T21:49:25.238Z,16.73
2019-06-07T21:52:29.687Z,16.69
2019-06-07T21:55:34.013Z,16.65
2019-06-07T21:58:38.408Z,16.70
2019-06-07T22:01:42.771Z,16.77
2019-06-07T22:04:47.110Z,16.83
2019-06-07T22:07:51.472Z,16.68
2019-06-07T22:10:57.263Z,16.67
2019-06-07T22:14:04.156Z,16.68
2019-06-07T22:17:10.509Z,16.74
2019-06-07T22:20:15.142Z,16.70
2019-06-07T22:23:19.514Z,16.74
2019-06-07T22:26:23.822Z,16.81
2019-06-07T22:29:28.173Z,16.73
2019-06-07T22:32:32.463Z,16.73
2019-06-07T22:35:38.210Z,16.62
2019-06-07T22:38:42.512Z,16.69
2019-06-07T22:41:46.811Z,16.72
2019-06-07T22:44:51.129Z,16.69
2019-06-07T22:47:55.529Z,16.63
2019-06-07T22:51:01.501Z,16.57
2019-06-07T22:54:05.842Z,16.62
2019-06-07T22:57:19.840Z,16.55
2019-06-07T23:00:25.468Z,16.59
2019-06-07T23:03:29.762Z,16.55
2019-06-07T23:06:34.175Z,16.62
2019-06-07T23:09:38.483Z,16.56
2019-06-07T23:12:42.794Z,16.63
2019-06-07T23:15:47.128Z,16.61
2019-06-07T23:18:51.431Z,16.75
2019-06-07T23:21:55.730Z,16.94
2019-06-07T23:25:00.027Z,17.05
2019-06-07T23:28:04.391Z,17.22
2019-06-07T23:31:08.697Z,17.42
2019-06-07T23:34:13.059Z,17.40
2019-06-07T23:37:17.313Z,17.50
2019-06-07T23:40:21.686Z,17.52
2019-06-07T23:43:26.059Z,17.49
2019-06-07T23:46:30.506Z,17.28
2019-06-07T23:49:34.806Z,17.18
2019-06-07T23:52:39.433Z,17.06
2019-06-07T23:55:47.498Z,16.94
2019-06-07T23:58:51.811Z,16.83
